Airfield :
LOGIN :

Register | Disclaimer

   EN    FR    IT 

 










Legend :    VFR   Marginal VFR   IFR   Intensive IFR   Very Intensive IFR
Visi :
Ceiling :
>= 8 km
>= 3000ft
5 to 8 km
1000 to 3000 ft
1500m to 5 km
500 to 1000 ft
800 to 1500m
200 to 500 ft
< 800m
< 200 ft
Symbols :   Thunderstorms  Fog  Heavy snow  Heavy precipitations  Wind > 20 kt
SIGMETs :     Misc.  Thunderstorms  Icing  Turbulence  Mountain Waves  Volcanic Ashes






- Airport Elevation : 16 ft
- IATA code : AAE


DABB - Annaba-Rabah Bitat

CURRENT METAR :
  • 200130Z 22004KT CAVOK 06/05 Q1017

EXPIRED METARs :
  • 200100Z VRB02KT CAVOK 06/04 Q1018
  • 200030Z 22003KT CAVOK 07/05 Q1018
  • 200000Z 22004KT CAVOK 07/05 Q1018
  • 192330Z 23003KT CAVOK 08/06 Q1019
  • 192300Z 22003KT CAVOK 09/07 Q1019
  • 192230Z 21004KT 9999 FEW033 08/06 Q1019
  • 192200Z 21003KT 9999 FEW033 09/06 Q1020
  • 192130Z VRB02KT 9999 FEW033 09/06 Q1020
  • 192100Z 21004KT 9999 FEW033 09/06 Q1020

TAF TAF DABB
Valid from the 20 at 00:00 until the 21 at 00:00 UTC


192300Z 2000/2024 22008KT CAVOK
PROB30
TEMPO 2012/2020 FEW023TCU



MET'MAP, your aeronautical weather chart ! - Copyright ORBIFLY December 2007 - Disclaimer

ORBIFLY MET'MAP TEAM :

Programming & Development : Alexandra Zaïnal
Original concept : Baudouin d'Aumeries
Technical & hardware support : Manuel Goepfert
Assistance : Marc-Olivier Méhu




SOURCES & CREDITS :

   NOAA